createdAt,value
2019-01-13T00:01:55.392Z,5.10
2019-01-13T00:04:25.083Z,5.10
2019-01-13T00:06:54.774Z,5.10
2019-01-13T00:09:23.953Z,5.00
2019-01-13T00:11:53.364Z,4.90
2019-01-13T00:14:22.880Z,4.90
2019-01-13T00:16:52.208Z,4.80
2019-01-13T00:19:21.406Z,4.90
2019-01-13T00:21:50.593Z,4.90
2019-01-13T00:24:19.660Z,5.00
2019-01-13T00:26:48.817Z,5.10
2019-01-13T00:29:18.334Z,5.20
2019-01-13T00:31:47.545Z,5.30
2019-01-13T00:34:16.717Z,5.30
2019-01-13T00:36:45.792Z,5.30
2019-01-13T00:39:15.418Z,5.30
2019-01-13T00:41:44.520Z,5.30
2019-01-13T00:44:13.629Z,5.40
2019-01-13T00:46:42.713Z,5.30
2019-01-13T00:49:11.804Z,5.30
2019-01-13T00:51:41.692Z,5.30
2019-01-13T00:54:11.337Z,5.40
2019-01-13T00:56:40.436Z,5.30
2019-01-13T00:59:09.784Z,5.30
2019-01-13T01:01:39.231Z,5.20
2019-01-13T01:04:08.426Z,5.20
2019-01-13T01:06:37.913Z,5.30
2019-01-13T01:09:10.323Z,5.20
2019-01-13T01:11:39.937Z,5.20
2019-01-13T01:14:09.348Z,5.20
2019-01-13T01:16:38.703Z,5.20
2019-01-13T01:19:08.297Z,5.20
2019-01-13T01:21:37.897Z,5.10
2019-01-13T01:24:07.204Z,5.20
2019-01-13T01:26:36.301Z,5.20
2019-01-13T01:29:05.712Z,5.10
2019-01-13T01:31:34.881Z,5.10
2019-01-13T01:34:04.017Z,5.10
2019-01-13T01:36:33.111Z,5.10
2019-01-13T01:39:02.248Z,5.10
2019-01-13T01:41:32.329Z,5.10
2019-01-13T01:44:02.328Z,5.00
2019-01-13T01:46:31.490Z,5.00
2019-01-13T01:49:00.572Z,5.00
2019-01-13T01:51:29.658Z,5.00
2019-01-13T01:53:58.725Z,5.00
2019-01-13T01:56:27.849Z,4.90
2019-01-13T01:58:57.069Z,4.80
2019-01-13T02:01:26.619Z,4.80
2019-01-13T02:03:55.757Z,4.80
2019-01-13T02:06:25.234Z,4.70
2019-01-13T02:08:54.684Z,4.70
2019-01-13T02:11:24.122Z,4.60
2019-01-13T02:13:53.365Z,4.50
2019-01-13T02:16:22.492Z,4.50
2019-01-13T02:18:52.301Z,4.40
2019-01-13T02:21:21.402Z,4.30
2019-01-13T02:23:50.588Z,4.30
2019-01-13T02:26:19.701Z,4.30
2019-01-13T02:28:48.764Z,4.30
2019-01-13T02:31:18.240Z,4.40
2019-01-13T02:33:47.322Z,4.50
2019-01-13T02:36:16.661Z,4.50
2019-01-13T02:38:45.784Z,4.60
2019-01-13T02:41:15.451Z,4.60
2019-01-13T02:43:44.661Z,4.60
2019-01-13T02:46:14.453Z,4.60
2019-01-13T02:48:44.586Z,4.70
2019-01-13T02:51:13.997Z,4.70
2019-01-13T02:53:43.717Z,4.70
2019-01-13T02:56:12.866Z,4.80
2019-01-13T02:58:42.317Z,4.80
2019-01-13T03:01:11.633Z,4.80
2019-01-13T03:03:40.760Z,4.90
2019-01-13T03:06:09.830Z,4.90
2019-01-13T03:08:38.913Z,4.90
2019-01-13T03:11:08.013Z,4.90
2019-01-13T03:13:37.755Z,4.90
2019-01-13T03:16:06.819Z,4.90
2019-01-13T03:18:36.510Z,4.80
2019-01-13T03:21:06.366Z,4.80
2019-01-13T03:23:35.823Z,4.80
2019-01-13T03:26:04.966Z,4.80
2019-01-13T03:28:34.069Z,4.80
2019-01-13T03:31:11.690Z,4.80
2019-01-13T03:33:33.997Z,4.80
2019-01-13T03:36:03.183Z,4.90
2019-01-13T03:38:32.328Z,4.80
2019-01-13T03:41:01.461Z,4.90
2019-01-13T03:43:30.573Z,4.90
2019-01-13T03:45:59.711Z,4.90
2019-01-13T03:48:28.853Z,5.00
2019-01-13T03:50:58.204Z,5.00
2019-01-13T03:53:27.285Z,5.00
2019-01-13T03:55:56.679Z,5.00
2019-01-13T03:58:25.764Z,5.00
2019-01-13T04:00:54.852Z,5.10
2019-01-13T04:03:24.000Z,5.10
2019-01-13T04:05:53.776Z,5.10
2019-01-13T04:08:22.877Z,5.10
2019-01-13T04:10:52.237Z,5.10
2019-01-13T04:13:21.404Z,5.10
2019-01-13T04:16:00.592Z,5.10
2019-01-13T04:18:29.659Z,5.10
2019-01-13T04:20:58.886Z,5.10
2019-01-13T04:23:28.250Z,5.10
2019-01-13T04:25:57.317Z,5.10
2019-01-13T04:28:26.518Z,5.10
2019-01-13T04:30:55.666Z,5.10
2019-01-13T04:33:25.029Z,5.10
2019-01-13T04:35:54.476Z,5.10
2019-01-13T04:38:23.865Z,5.20
2019-01-13T04:40:53.279Z,5.20
2019-01-13T04:43:22.392Z,5.20
2019-01-13T04:45:51.580Z,5.20
2019-01-13T04:48:20.668Z,5.10
2019-01-13T04:50:49.858Z,5.10
2019-01-13T04:53:19.004Z,5.10
2019-01-13T04:55:48.136Z,5.10
2019-01-13T04:58:17.234Z,5.10
2019-01-13T05:00:46.388Z,5.10
2019-01-13T05:03:15.576Z,5.10
2019-01-13T05:05:45.226Z,5.10
2019-01-13T05:08:14.305Z,5.10
2019-01-13T05:10:43.463Z,5.10
2019-01-13T05:13:12.549Z,5.10
2019-01-13T05:15:41.779Z,5.10
2019-01-13T05:18:10.908Z,5.20
2019-01-13T05:20:40.445Z,5.20
2019-01-13T05:23:09.545Z,5.20
2019-01-13T05:25:38.972Z,5.30
2019-01-13T05:28:08.117Z,5.30
2019-01-13T05:30:37.535Z,5.30
2019-01-13T05:33:07.394Z,5.30
2019-01-13T05:35:36.494Z,5.40
2019-01-13T05:38:05.599Z,5.40
2019-01-13T05:40:34.975Z,5.40
2019-01-13T05:43:04.431Z,5.40
2019-01-13T05:45:33.549Z,5.40
2019-01-13T05:48:03.321Z,5.40
2019-01-13T05:50:32.809Z,5.40
2019-01-13T05:53:02.310Z,5.40
2019-01-13T05:55:32.137Z,5.40
2019-01-13T05:58:01.224Z,5.50
2019-01-13T06:00:34.571Z,5.50
2019-01-13T06:03:04.028Z,5.50
2019-01-13T06:05:33.517Z,5.50
2019-01-13T06:08:02.853Z,5.50
2019-01-13T06:10:31.958Z,5.40
2019-01-13T06:13:01.023Z,5.50
2019-01-13T06:15:30.168Z,5.40
2019-01-13T06:17:59.256Z,5.40
2019-01-13T06:20:28.392Z,5.40
2019-01-13T06:22:57.452Z,5.40
2019-01-13T06:25:26.869Z,5.40
2019-01-13T06:27:56.054Z,5.50
2019-01-13T06:30:25.152Z,5.40
2019-01-13T06:32:54.693Z,5.50
2019-01-13T06:35:24.029Z,5.50
2019-01-13T06:37:53.133Z,5.50
2019-01-13T06:40:22.688Z,5.50
2019-01-13T06:42:51.889Z,5.50
2019-01-13T06:45:25.429Z,5.60
2019-01-13T06:47:54.637Z,5.60
2019-01-13T06:50:24.220Z,5.60
2019-01-13T06:52:53.306Z,5.60
2019-01-13T06:55:22.701Z,5.60
2019-01-13T06:57:51.814Z,5.60
2019-01-13T07:00:22.936Z,5.60
2019-01-13T07:02:52.365Z,5.70
2019-01-13T07:05:22.042Z,5.70
2019-01-13T07:07:51.208Z,5.70
2019-01-13T07:10:20.420Z,5.70
2019-01-13T07:12:49.542Z,5.70
2019-01-13T07:15:19.765Z,5.70
2019-01-13T07:17:49.745Z,5.70
2019-01-13T07:20:20.612Z,5.70
2019-01-13T07:22:50.216Z,5.70
2019-01-13T07:25:19.401Z,5.70
2019-01-13T07:27:48.537Z,5.70
2019-01-13T07:30:19.465Z,5.70
2019-01-13T07:32:48.652Z,5.70
2019-01-13T07:35:17.733Z,5.70
2019-01-13T07:37:47.193Z,5.70
2019-01-13T07:40:18.445Z,5.70
2019-01-13T07:42:47.643Z,5.70
2019-01-13T07:45:18.641Z,5.70
2019-01-13T07:47:48.135Z,5.70
2019-01-13T07:50:17.924Z,5.70
2019-01-13T07:52:47.175Z,5.70
2019-01-13T07:55:18.304Z,5.70
2019-01-13T07:57:47.492Z,5.70
2019-01-13T08:00:21.240Z,5.80
2019-01-13T08:02:50.606Z,5.70
2019-01-13T08:05:20.217Z,5.70
2019-01-13T08:07:49.415Z,5.70
2019-01-13T08:10:18.634Z,5.80
2019-01-13T08:12:47.697Z,5.70
2019-01-13T08:15:18.513Z,5.80
2019-01-13T08:17:48.560Z,5.80
2019-01-13T08:20:23.575Z,5.80
2019-01-13T08:22:53.132Z,5.80
2019-01-13T08:25:22.917Z,5.80
2019-01-13T08:27:52.021Z,5.80
2019-01-13T08:30:21.138Z,5.80
2019-01-13T08:32:50.264Z,5.80
2019-01-13T08:35:19.785Z,5.80
2019-01-13T08:37:48.903Z,5.80
2019-01-13T08:40:20.780Z,5.80
2019-01-13T08:42:49.952Z,5.80
2019-01-13T08:45:20.212Z,5.90
2019-01-13T08:47:49.276Z,5.90
2019-01-13T08:50:20.171Z,5.90
2019-01-13T08:52:49.411Z,5.90
2019-01-13T08:55:18.837Z,5.90
2019-01-13T08:57:48.068Z,5.90
2019-01-13T09:00:26.204Z,5.90
2019-01-13T09:02:56.054Z,6.00
2019-01-13T09:05:26.030Z,6.00
2019-01-13T09:07:55.296Z,6.00
2019-01-13T09:10:24.388Z,6.00
2019-01-13T09:12:56.999Z,6.00
2019-01-13T09:15:25.560Z,6.00
2019-01-13T09:17:55.032Z,6.00
2019-01-13T09:20:27.040Z,6.10
2019-01-13T09:22:57.062Z,6.00
2019-01-13T09:25:27.043Z,6.10
2019-01-13T09:27:56.809Z,6.10
2019-01-13T09:30:27.621Z,6.10
2019-01-13T09:32:57.181Z,6.10
2019-01-13T09:35:26.837Z,6.20
2019-01-13T09:37:56.449Z,6.20
2019-01-13T09:40:27.869Z,6.30
2019-01-13T09:42:58.347Z,6.30
2019-01-13T09:45:28.237Z,6.30
2019-01-13T09:47:57.680Z,6.40
2019-01-13T09:50:26.913Z,6.40
2019-01-13T09:52:56.165Z,6.40
2019-01-13T09:55:25.797Z,6.40
2019-01-13T09:57:55.365Z,6.40
2019-01-13T10:00:43.703Z,6.40
2019-01-13T10:03:13.023Z,6.40
2019-01-13T10:05:42.420Z,6.40
2019-01-13T10:08:12.117Z,6.40
2019-01-13T10:10:41.519Z,6.50
2019-01-13T10:13:11.145Z,6.40
2019-01-13T10:15:42.506Z,6.50
2019-01-13T10:18:11.477Z,6.40
2019-01-13T10:20:40.633Z,6.40
2019-01-13T10:23:09.737Z,6.50
2019-01-13T10:25:38.920Z,6.50
2019-01-13T10:28:08.025Z,6.50
2019-01-13T10:30:37.213Z,6.50
2019-01-13T10:33:06.371Z,6.50
2019-01-13T10:35:35.673Z,6.60
2019-01-13T10:38:05.208Z,6.60
2019-01-13T10:40:34.342Z,6.70
2019-01-13T10:43:03.714Z,6.70
2019-01-13T10:45:32.796Z,6.70
2019-01-13T10:48:02.064Z,6.70
2019-01-13T10:50:32.428Z,6.70
2019-01-13T10:53:06.267Z,6.70
2019-01-13T10:55:35.500Z,6.70
2019-01-13T10:58:04.925Z,6.70
2019-01-13T11:00:38.510Z,6.80
2019-01-13T11:03:07.726Z,6.80
2019-01-13T11:05:37.451Z,6.80
2019-01-13T11:08:11.471Z,6.80
2019-01-13T11:10:37.984Z,6.80
2019-01-13T11:13:07.197Z,6.80
2019-01-13T11:15:36.338Z,6.80
2019-01-13T11:18:06.305Z,6.90
2019-01-13T11:20:37.773Z,6.90
2019-01-13T11:23:07.411Z,6.90
2019-01-13T11:25:36.653Z,6.90
2019-01-13T11:28:06.692Z,6.90
2019-01-13T11:30:36.074Z,6.90
2019-01-13T11:33:09.805Z,6.90
2019-01-13T11:35:36.597Z,7.00
2019-01-13T11:38:05.961Z,7.00
2019-01-13T11:40:35.054Z,7.00
2019-01-13T11:43:04.630Z,7.00
2019-01-13T11:45:34.052Z,7.00
2019-01-13T11:48:03.211Z,7.00
2019-01-13T11:50:32.345Z,7.00
2019-01-13T11:53:01.485Z,7.00
2019-01-13T11:55:30.720Z,7.00
2019-01-13T11:57:59.848Z,7.00
2019-01-13T12:00:31.770Z,7.00
2019-01-13T12:03:06.649Z,7.00
2019-01-13T12:05:31.835Z,7.10
2019-01-13T12:08:01.266Z,7.00
2019-01-13T12:10:30.375Z,7.10
2019-01-13T12:12:59.993Z,7.10
2019-01-13T12:15:29.228Z,7.10
2019-01-13T12:17:58.380Z,7.10
2019-01-13T12:20:27.611Z,7.10
2019-01-13T12:22:57.308Z,7.10
2019-01-13T12:25:26.544Z,7.20
2019-01-13T12:27:55.763Z,7.20
2019-01-13T12:30:26.822Z,7.20
2019-01-13T12:32:56.215Z,7.20
2019-01-13T12:35:25.333Z,7.20
2019-01-13T12:37:54.593Z,7.20
2019-01-13T12:40:24.756Z,7.30
2019-01-13T12:42:53.892Z,7.40
2019-01-13T12:45:23.471Z,7.40
2019-01-13T12:47:52.739Z,7.40
2019-01-13T12:50:26.991Z,7.40
2019-01-13T12:53:02.009Z,7.50
2019-01-13T12:55:35.032Z,7.50
2019-01-13T12:58:05.836Z,7.50
2019-01-13T13:00:35.045Z,7.50
2019-01-13T13:03:04.359Z,7.50
2019-01-13T13:05:34.125Z,7.50
2019-01-13T13:08:03.528Z,7.60
2019-01-13T13:10:38.149Z,7.60
2019-01-13T13:13:07.578Z,7.50
2019-01-13T13:15:36.685Z,7.60
2019-01-13T13:18:06.100Z,7.60
2019-01-13T13:20:35.552Z,7.50
2019-01-13T13:23:05.357Z,7.60
2019-01-13T13:25:34.441Z,7.60
2019-01-13T13:28:03.748Z,7.60
2019-01-13T13:30:33.276Z,7.60
2019-01-13T13:33:02.372Z,7.60
2019-01-13T13:35:31.519Z,7.60
2019-01-13T13:38:00.814Z,7.60
2019-01-13T13:40:30.002Z,7.60
2019-01-13T13:42:59.172Z,7.60
2019-01-13T13:45:28.568Z,7.60
2019-01-13T13:47:57.692Z,7.60
2019-01-13T13:50:27.017Z,7.60
2019-01-13T13:52:56.288Z,7.60
2019-01-13T13:55:25.393Z,7.70
2019-01-13T13:57:54.581Z,7.70
2019-01-13T14:00:32.486Z,7.70
2019-01-13T14:03:01.565Z,7.70
2019-01-13T14:05:30.860Z,7.70
2019-01-13T14:08:01.013Z,7.70
2019-01-13T14:10:35.648Z,7.70
2019-01-13T14:13:05.209Z,7.70
2019-01-13T14:15:34.302Z,7.70
2019-01-13T14:18:03.459Z,7.70
2019-01-13T14:20:32.529Z,7.70
2019-01-13T14:23:02.343Z,7.70
2019-01-13T14:25:31.505Z,7.70
2019-01-13T14:28:00.700Z,7.70
2019-01-13T14:30:30.113Z,7.80
2019-01-13T14:32:59.225Z,7.80
2019-01-13T14:35:28.451Z,7.70
2019-01-13T14:37:57.820Z,7.70
2019-01-13T14:40:27.967Z,7.80
2019-01-13T14:42:57.082Z,7.80
2019-01-13T14:45:27.311Z,7.70
2019-01-13T14:47:56.403Z,7.80
2019-01-13T14:50:30.934Z,7.80
2019-01-13T14:53:00.408Z,7.80
2019-01-13T14:55:29.836Z,7.80
2019-01-13T14:57:59.173Z,7.90
2019-01-13T15:00:30.748Z,7.90
2019-01-13T15:03:00.346Z,8.00
2019-01-13T15:05:29.661Z,8.00
2019-01-13T15:07:58.992Z,8.00
2019-01-13T15:10:28.209Z,8.10
2019-01-13T15:12:57.594Z,8.10
2019-01-13T15:15:27.106Z,8.10
2019-01-13T15:17:56.919Z,8.10
2019-01-13T15:20:26.310Z,8.20
2019-01-13T15:22:55.705Z,8.10
2019-01-13T15:25:29.560Z,8.10
2019-01-13T15:27:58.989Z,8.10
2019-01-13T15:30:30.243Z,8.10
2019-01-13T15:32:59.494Z,8.10
2019-01-13T15:35:28.873Z,8.10
2019-01-13T15:37:58.262Z,8.20
2019-01-13T15:40:27.983Z,8.20
2019-01-13T15:42:58.023Z,8.20
2019-01-13T15:45:27.973Z,8.30
2019-01-13T15:47:57.245Z,8.30
2019-01-13T15:50:27.962Z,8.30
2019-01-13T15:52:57.161Z,8.20
2019-01-13T15:55:26.630Z,8.20
2019-01-13T15:57:55.876Z,8.20
2019-01-13T16:00:27.449Z,8.20
2019-01-13T16:02:56.536Z,8.20
2019-01-13T16:05:26.133Z,8.20
2019-01-13T16:07:55.420Z,8.20
2019-01-13T16:10:25.710Z,8.30
2019-01-13T16:12:55.922Z,8.40
2019-01-13T16:15:25.256Z,8.40
2019-01-13T16:17:54.391Z,8.40
2019-01-13T16:20:35.018Z,8.40
2019-01-13T16:23:04.699Z,8.40
2019-01-13T16:25:34.061Z,8.50
2019-01-13T16:28:03.541Z,8.50
2019-01-13T16:30:33.430Z,8.50
2019-01-13T16:33:02.977Z,8.50
2019-01-13T16:35:32.394Z,8.40
2019-01-13T16:38:01.869Z,8.40
2019-01-13T16:40:31.017Z,8.40
2019-01-13T16:43:00.233Z,8.50
2019-01-13T16:45:29.549Z,8.50
2019-01-13T16:47:58.647Z,8.50
2019-01-13T16:50:28.274Z,8.50
2019-01-13T16:52:58.701Z,8.60
2019-01-13T16:55:28.109Z,8.60
2019-01-13T16:57:57.260Z,8.60
2019-01-13T17:00:28.285Z,8.60
2019-01-13T17:02:57.491Z,8.60
2019-01-13T17:05:26.844Z,8.60
2019-01-13T17:07:55.929Z,8.60
2019-01-13T17:10:25.785Z,8.60
2019-01-13T17:12:54.999Z,8.60
2019-01-13T17:15:26.989Z,8.60
2019-01-13T17:17:56.061Z,8.50
2019-01-13T17:20:25.449Z,8.50
2019-01-13T17:22:54.625Z,8.50
2019-01-13T17:25:25.099Z,8.60
2019-01-13T17:27:54.208Z,8.50
2019-01-13T17:30:25.017Z,8.50
2019-01-13T17:32:54.151Z,8.50
2019-01-13T17:35:23.249Z,8.60
2019-01-13T17:37:52.390Z,8.60
2019-01-13T17:40:23.103Z,8.60
2019-01-13T17:42:52.660Z,8.50
2019-01-13T17:45:23.752Z,8.50
2019-01-13T17:47:53.179Z,8.50
2019-01-13T17:50:23.585Z,8.50
2019-01-13T17:52:53.340Z,8.50
2019-01-13T17:55:24.089Z,8.50
2019-01-13T17:57:53.865Z,8.40
2019-01-13T18:00:56.877Z,8.40
2019-01-13T18:03:36.398Z,8.40
2019-01-13T18:06:05.891Z,8.40
2019-01-13T18:08:34.985Z,8.40
2019-01-13T18:11:04.397Z,8.40
2019-01-13T18:13:33.745Z,8.40
2019-01-13T18:16:02.917Z,8.40
2019-01-13T18:18:32.032Z,8.30
2019-01-13T18:21:01.506Z,8.40
2019-01-13T18:23:30.858Z,8.40
2019-01-13T18:26:01.890Z,8.30
2019-01-13T18:28:31.317Z,8.30
2019-01-13T18:31:00.720Z,8.40
2019-01-13T18:33:30.413Z,8.40
2019-01-13T18:35:59.640Z,8.40
2019-01-13T18:38:28.883Z,8.40
2019-01-13T18:40:57.951Z,8.40
2019-01-13T18:43:27.293Z,8.40
2019-01-13T18:45:58.557Z,8.50
2019-01-13T18:48:28.879Z,8.50
2019-01-13T18:50:58.308Z,8.40
2019-01-13T18:53:27.576Z,8.30
2019-01-13T18:55:56.731Z,8.30
2019-01-13T18:58:25.869Z,8.40
2019-01-13T19:00:55.196Z,8.50
2019-01-13T19:03:24.257Z,8.40
2019-01-13T19:05:53.486Z,8.30
2019-01-13T19:08:23.093Z,8.20
2019-01-13T19:11:02.962Z,8.20
2019-01-13T19:13:48.470Z,8.20
2019-01-13T19:16:19.850Z,8.20
2019-01-13T19:18:50.198Z,8.20
2019-01-13T19:21:19.560Z,8.20
2019-01-13T19:23:48.784Z,8.20
2019-01-13T19:26:18.479Z,8.20
2019-01-13T19:28:47.633Z,8.30
2019-01-13T19:31:16.823Z,8.40
2019-01-13T19:33:46.148Z,8.40
2019-01-13T19:36:16.016Z,8.40
2019-01-13T19:38:46.752Z,8.40
2019-01-13T19:41:17.377Z,8.30
2019-01-13T19:43:47.709Z,8.20
2019-01-13T19:46:17.759Z,8.10
2019-01-13T19:48:47.028Z,7.90
2019-01-13T19:51:16.358Z,7.70
2019-01-13T19:53:45.671Z,7.60
2019-01-13T19:56:15.165Z,7.40
2019-01-13T19:58:44.277Z,7.30
2019-01-13T20:01:13.450Z,7.10
2019-01-13T20:03:42.964Z,7.10
2019-01-13T20:06:12.354Z,7.00
2019-01-13T20:08:41.905Z,6.90
2019-01-13T20:11:11.184Z,7.00
2019-01-13T20:13:41.537Z,7.10
2019-01-13T20:16:10.951Z,7.20
2019-01-13T20:18:40.383Z,7.20
2019-01-13T20:21:09.719Z,7.20
2019-01-13T20:23:40.012Z,7.20
2019-01-13T20:26:10.186Z,7.20
2019-01-13T20:28:39.633Z,7.40
2019-01-13T20:31:09.017Z,7.40
2019-01-13T20:33:38.499Z,7.50
2019-01-13T20:36:07.780Z,7.60
2019-01-13T20:38:37.166Z,7.70
2019-01-13T20:41:06.513Z,7.80
2019-01-13T20:43:35.612Z,7.80
2019-01-13T20:46:04.994Z,7.80
2019-01-13T20:48:34.271Z,7.70
2019-01-13T20:51:03.624Z,7.40
2019-01-13T20:53:33.160Z,7.00
2019-01-13T20:56:02.622Z,6.70
2019-01-13T20:58:31.729Z,6.50
2019-01-13T21:01:01.468Z,6.20
2019-01-13T21:03:30.613Z,6.00
2019-01-13T21:06:00.006Z,5.90
2019-01-13T21:08:29.131Z,5.90
2019-01-13T21:10:58.476Z,5.80
2019-01-13T21:13:27.918Z,5.90
2019-01-13T21:15:57.259Z,5.90
2019-01-13T21:18:26.349Z,5.80
2019-01-13T21:20:55.520Z,5.80
2019-01-13T21:23:26.175Z,5.80
2019-01-13T21:25:55.326Z,5.80
2019-01-13T21:28:24.615Z,5.80
2019-01-13T21:30:53.728Z,5.90
2019-01-13T21:33:22.850Z,5.90
2019-01-13T21:35:51.912Z,5.90
2019-01-13T21:38:21.264Z,5.90
2019-01-13T21:40:50.415Z,5.90
2019-01-13T21:43:19.482Z,5.90
2019-01-13T21:45:48.636Z,5.90
2019-01-13T21:48:17.689Z,5.90
2019-01-13T21:50:47.136Z,5.90
2019-01-13T21:53:17.093Z,5.80
2019-01-13T21:55:46.244Z,5.80
2019-01-13T21:58:15.432Z,5.80
2019-01-13T22:00:44.861Z,5.90
2019-01-13T22:03:14.028Z,6.00
2019-01-13T22:05:43.175Z,6.00
2019-01-13T22:08:12.296Z,6.00
2019-01-13T22:10:41.478Z,6.00
2019-01-13T22:13:10.562Z,6.10
2019-01-13T22:15:39.756Z,6.20
2019-01-13T22:18:09.539Z,6.20
2019-01-13T22:20:38.793Z,6.20
2019-01-13T22:23:08.001Z,6.10
2019-01-13T22:25:37.160Z,6.10
2019-01-13T22:28:06.947Z,6.10
2019-01-13T22:30:36.428Z,6.10
2019-01-13T22:33:05.491Z,6.10
2019-01-13T22:35:35.024Z,6.10
2019-01-13T22:38:04.149Z,6.00
2019-01-13T22:40:33.205Z,6.00
2019-01-13T22:43:02.523Z,6.10
2019-01-13T22:45:32.773Z,6.10
2019-01-13T22:48:02.381Z,6.10
2019-01-13T22:50:32.817Z,6.20
2019-01-13T22:53:02.160Z,6.10
2019-01-13T22:55:31.489Z,6.20
2019-01-13T22:58:00.964Z,6.20
2019-01-13T23:00:51.214Z,6.20
2019-01-13T23:03:20.458Z,6.20
2019-01-13T23:05:55.558Z,6.20
2019-01-13T23:08:21.453Z,6.20
2019-01-13T23:10:50.851Z,6.20
2019-01-13T23:13:19.925Z,6.30
2019-01-13T23:15:49.402Z,6.30
2019-01-13T23:18:18.494Z,6.30
2019-01-13T23:20:47.653Z,6.40
2019-01-13T23:23:16.757Z,6.50
2019-01-13T23:25:45.931Z,6.50
2019-01-13T23:28:15.052Z,6.40
2019-01-13T23:30:44.214Z,6.50
2019-01-13T23:33:13.525Z,6.50
2019-01-13T23:35:42.611Z,6.40
2019-01-13T23:38:11.698Z,6.30
2019-01-13T23:40:40.843Z,6.20
2019-01-13T23:43:09.966Z,6.20
2019-01-13T23:45:39.068Z,6.10
2019-01-13T23:48:08.795Z,6.20
2019-01-13T23:50:38.267Z,6.20
2019-01-13T23:53:08.127Z,6.20
2019-01-13T23:55:37.575Z,6.30
2019-01-13T23:58:07.015Z,6.30
